createdAt,value
2023-04-18T00:00:52.065Z,7
2023-04-18T00:01:59.059Z,6
2023-04-18T00:03:06.151Z,6
2023-04-18T00:04:12.972Z,6
2023-04-18T00:05:20.542Z,6
2023-04-18T00:06:29.226Z,6
2023-04-18T00:07:36.108Z,5
2023-04-18T00:08:43.136Z,6
2023-04-18T00:09:50.027Z,7
2023-04-18T00:10:56.891Z,6
2023-04-18T00:12:05.770Z,6
2023-04-18T00:13:12.693Z,5
2023-04-18T00:14:22.660Z,5
2023-04-18T00:15:29.548Z,6
2023-04-18T00:16:36.501Z,6
2023-04-18T00:17:43.270Z,6
2023-04-18T00:18:50.177Z,5
2023-04-18T00:19:57.014Z,6
2023-04-18T00:21:03.949Z,6
2023-04-18T00:22:11.006Z,5
2023-04-18T00:23:17.929Z,8
2023-04-18T00:24:24.898Z,6
2023-04-18T00:25:35.045Z,6
2023-04-18T00:26:42.947Z,6
2023-04-18T00:27:49.795Z,5
2023-04-18T00:28:56.590Z,6
2023-04-18T00:30:03.562Z,6
2023-04-18T00:31:10.709Z,6
2023-04-18T00:32:18.334Z,7
2023-04-18T00:33:25.062Z,6
2023-04-18T00:34:31.956Z,6
2023-04-18T00:35:39.672Z,6
2023-04-18T00:36:47.421Z,7
2023-04-18T00:37:54.216Z,6
2023-04-18T00:39:01.077Z,6
2023-04-18T00:40:08.036Z,6
2023-04-18T00:41:15.104Z,6
2023-04-18T00:42:22.164Z,6
2023-04-18T00:43:29.065Z,6
2023-04-18T00:44:35.860Z,6
2023-04-18T00:45:42.694Z,6
2023-04-18T00:46:50.402Z,7
2023-04-18T00:47:57.272Z,5
2023-04-18T00:49:04.155Z,6
2023-04-18T00:50:11.217Z,6
2023-04-18T00:51:18.051Z,6
2023-04-18T00:52:24.895Z,6
2023-04-18T00:53:31.838Z,5
2023-04-18T00:54:38.862Z,6
2023-04-18T00:55:45.785Z,7
2023-04-18T00:56:55.581Z,6
2023-04-18T00:58:02.550Z,6
2023-04-18T00:59:09.411Z,5
2023-04-18T01:00:17.209Z,5
2023-04-18T01:01:24.133Z,6
2023-04-18T01:02:32.085Z,5
2023-04-18T01:03:42.084Z,5
2023-04-18T01:04:48.610Z,6
2023-04-18T01:05:56.977Z,5
2023-04-18T01:07:03.890Z,5
2023-04-18T01:08:10.841Z,5
2023-04-18T01:09:17.709Z,6
2023-04-18T01:10:24.641Z,6
2023-04-18T01:11:31.577Z,6
2023-04-18T01:12:39.403Z,7
2023-04-18T01:13:46.321Z,5
2023-04-18T01:15:01.010Z,6
2023-04-18T01:16:10.142Z,5
2023-04-18T01:17:17.017Z,5
2023-04-18T01:18:24.015Z,5
2023-04-18T01:19:30.841Z,6
2023-04-18T01:20:38.731Z,6
2023-04-18T01:21:49.685Z,5
2023-04-18T01:22:56.534Z,6
2023-04-18T01:24:03.392Z,5
2023-04-18T01:25:10.425Z,6
2023-04-18T01:26:17.325Z,5
2023-04-18T01:27:25.087Z,5
2023-04-18T01:28:32.037Z,5
2023-04-18T01:29:39.096Z,6
2023-04-18T01:30:45.965Z,6
2023-04-18T01:31:53.151Z,6
2023-04-18T01:33:01.196Z,5
2023-04-18T01:34:07.867Z,5
2023-04-18T01:35:14.904Z,6
2023-04-18T01:36:21.801Z,7
2023-04-18T01:37:31.614Z,5
2023-04-18T01:38:38.559Z,5
2023-04-18T01:39:45.429Z,5
2023-04-18T01:40:52.363Z,6
2023-04-18T01:41:59.263Z,5
2023-04-18T01:43:06.225Z,6
2023-04-18T01:44:13.323Z,6
2023-04-18T01:45:19.933Z,5
2023-04-18T01:46:26.874Z,6
2023-04-18T01:47:34.516Z,6
2023-04-18T01:48:41.500Z,5
2023-04-18T01:49:48.434Z,5
2023-04-18T01:50:55.490Z,5
2023-04-18T01:52:02.356Z,5
2023-04-18T01:53:09.296Z,6
2023-04-18T01:54:16.712Z,6
2023-04-18T01:55:23.275Z,5
2023-04-18T01:56:30.212Z,6
2023-04-18T01:57:37.832Z,7
2023-04-18T01:58:44.758Z,6
2023-04-18T01:59:51.715Z,5
2023-04-18T02:00:59.405Z,6
2023-04-18T02:02:09.104Z,5
2023-04-18T02:03:15.995Z,6
2023-04-18T02:04:23.685Z,5
2023-04-18T02:05:30.468Z,6
2023-04-18T02:06:37.294Z,6
2023-04-18T02:07:46.805Z,6
2023-04-18T02:08:53.757Z,6
2023-04-18T02:10:00.695Z,6
2023-04-18T02:11:07.708Z,6
2023-04-18T02:12:19.727Z,6
2023-04-18T02:13:27.614Z,5
2023-04-18T02:14:34.507Z,5
2023-04-18T02:15:41.362Z,6
2023-04-18T02:16:51.289Z,6
2023-04-18T02:17:58.099Z,6
2023-04-18T02:19:04.973Z,6
2023-04-18T02:20:12.469Z,7
2023-04-18T02:21:21.100Z,6
2023-04-18T02:22:27.936Z,5
2023-04-18T02:23:34.827Z,6
2023-04-18T02:24:41.950Z,5
2023-04-18T02:25:48.873Z,6
2023-04-18T02:26:55.773Z,6
2023-04-18T02:28:02.662Z,6
2023-04-18T02:29:09.510Z,6
2023-04-18T02:30:17.351Z,6
2023-04-18T02:31:24.978Z,6
2023-04-18T02:32:32.154Z,7
2023-04-18T02:33:38.928Z,7
2023-04-18T02:34:48.636Z,7
2023-04-18T02:35:57.306Z,6
2023-04-18T02:37:04.218Z,6
2023-04-18T02:38:11.092Z,7
2023-04-18T02:39:17.911Z,6
2023-04-18T02:40:24.871Z,8
2023-04-18T02:41:31.779Z,6
2023-04-18T02:42:38.701Z,6
2023-04-18T02:43:46.391Z,6
2023-04-18T02:44:53.305Z,6
2023-04-18T02:46:02.195Z,6
2023-04-18T02:47:09.119Z,6
2023-04-18T02:48:16.062Z,6
2023-04-18T02:49:22.918Z,7
2023-04-18T02:50:29.823Z,7
2023-04-18T02:51:36.738Z,8
2023-04-18T02:52:43.630Z,7
2023-04-18T02:53:51.533Z,8
2023-04-18T02:54:58.371Z,7
2023-04-18T02:56:05.277Z,8
2023-04-18T02:57:12.152Z,8
2023-04-18T02:58:19.117Z,8
2023-04-18T02:59:26.272Z,8
2023-04-18T03:00:33.172Z,8
2023-04-18T03:01:40.041Z,8
2023-04-18T03:02:47.082Z,8
2023-04-18T03:03:53.867Z,7
2023-04-18T03:05:01.722Z,8
2023-04-18T03:06:08.734Z,7
2023-04-18T03:07:15.551Z,9
2023-04-18T03:08:22.486Z,8
2023-04-18T03:09:30.820Z,7
2023-04-18T03:10:39.199Z,8
2023-04-18T03:11:46.141Z,9
2023-04-18T03:12:53.008Z,9
2023-04-18T03:13:59.919Z,10
2023-04-18T03:15:07.014Z,10
2023-04-18T03:16:17.827Z,10
2023-04-18T03:17:25.031Z,10
2023-04-18T03:18:32.011Z,11
2023-04-18T03:19:38.833Z,8
2023-04-18T03:20:45.834Z,9
2023-04-18T03:21:53.662Z,8
2023-04-18T03:23:00.803Z,9
2023-04-18T03:24:07.929Z,8
2023-04-18T03:25:14.767Z,9
2023-04-18T03:26:24.291Z,8
2023-04-18T03:27:32.053Z,8
2023-04-18T03:28:39.120Z,8
2023-04-18T03:29:46.049Z,9
2023-04-18T03:30:53.197Z,8
2023-04-18T03:32:00.142Z,9
2023-04-18T03:33:10.360Z,8
2023-04-18T03:34:17.166Z,9
2023-04-18T03:35:24.904Z,8
2023-04-18T03:36:31.798Z,8
2023-04-18T03:37:38.805Z,9
2023-04-18T03:38:45.734Z,8
2023-04-18T03:39:52.535Z,8
2023-04-18T03:41:06.170Z,8
2023-04-18T03:42:12.950Z,9
2023-04-18T03:43:19.774Z,6
2023-04-18T03:44:26.932Z,7
2023-04-18T03:45:36.917Z,8
2023-04-18T03:46:46.003Z,7
2023-04-18T03:47:54.085Z,7
2023-04-18T03:49:00.968Z,8
2023-04-18T03:50:10.443Z,7
2023-04-18T03:51:17.275Z,6
2023-04-18T03:52:29.945Z,9
2023-04-18T03:53:36.306Z,6
2023-04-18T03:54:44.070Z,6
2023-04-18T03:55:50.976Z,6
2023-04-18T03:56:57.939Z,5
2023-04-18T03:58:04.851Z,5
2023-04-18T03:59:11.716Z,7
2023-04-18T04:00:18.688Z,6
2023-04-18T04:01:26.302Z,6
2023-04-18T04:02:35.519Z,6
2023-04-18T04:03:42.579Z,6
2023-04-18T04:04:50.622Z,6
2023-04-18T04:05:57.511Z,5
2023-04-18T04:07:04.481Z,6
2023-04-18T04:08:11.392Z,7
2023-04-18T04:09:18.245Z,6
2023-04-18T04:10:25.127Z,7
2023-04-18T04:11:32.020Z,6
2023-04-18T04:12:38.943Z,7
2023-04-18T04:13:45.802Z,6
2023-04-18T04:14:53.811Z,7
2023-04-18T04:16:01.086Z,6
2023-04-18T04:17:08.125Z,6
2023-04-18T04:18:15.031Z,6
2023-04-18T04:19:21.988Z,6
2023-04-18T04:20:28.961Z,6
2023-04-18T04:21:35.902Z,11
2023-04-18T04:22:43.705Z,7
2023-04-18T04:23:50.695Z,7
2023-04-18T04:24:58.294Z,6
2023-04-18T04:26:05.095Z,6
2023-04-18T04:27:12.013Z,7
2023-04-18T04:28:19.679Z,7
2023-04-18T04:29:26.701Z,8
2023-04-18T04:30:36.164Z,9
2023-04-18T04:31:43.132Z,9
2023-04-18T04:32:51.838Z,8
2023-04-18T04:33:59.710Z,8
2023-04-18T04:35:09.509Z,7
2023-04-18T04:36:18.525Z,8
2023-04-18T04:37:23.430Z,8
2023-04-18T04:38:30.420Z,9
2023-04-18T04:39:37.328Z,7
2023-04-18T04:40:44.263Z,8
2023-04-18T04:41:51.138Z,10
2023-04-18T04:42:57.996Z,9
2023-04-18T04:44:04.927Z,10
2023-04-18T04:45:11.732Z,11
2023-04-18T04:46:18.680Z,9
2023-04-18T04:47:25.536Z,9
2023-04-18T04:48:32.375Z,9
2023-04-18T04:49:39.309Z,10
2023-04-18T04:50:47.165Z,9
2023-04-18T04:51:54.004Z,9
2023-04-18T04:53:00.840Z,9
2023-04-18T04:54:10.796Z,9
2023-04-18T04:55:18.047Z,11
2023-04-18T04:56:25.700Z,10
2023-04-18T04:57:32.543Z,10
2023-04-18T04:58:39.527Z,10
2023-04-18T04:59:46.461Z,9
2023-04-18T05:00:53.324Z,9
2023-04-18T05:02:00.121Z,10
2023-04-18T05:03:07.214Z,10
2023-04-18T05:04:14.382Z,11
2023-04-18T05:05:20.735Z,12
2023-04-18T05:06:27.538Z,11
2023-04-18T05:07:34.351Z,10
2023-04-18T05:08:41.247Z,11
2023-04-18T05:09:48.183Z,10
2023-04-18T05:10:55.033Z,10
2023-04-18T05:12:01.926Z,11
2023-04-18T05:13:08.814Z,12
2023-04-18T05:14:16.008Z,12
2023-04-18T05:15:22.577Z,13
2023-04-18T05:16:29.481Z,13
2023-04-18T05:17:38.499Z,11
2023-04-18T05:18:46.531Z,13
2023-04-18T05:19:56.738Z,12
2023-04-18T05:21:03.819Z,13
2023-04-18T05:22:10.683Z,12
2023-04-18T05:23:17.663Z,13
2023-04-18T05:24:24.531Z,12
2023-04-18T05:25:33.742Z,16
2023-04-18T05:26:40.692Z,12
2023-04-18T05:27:47.606Z,13
2023-04-18T05:28:54.448Z,13
2023-04-18T05:30:01.274Z,12
2023-04-18T05:31:08.832Z,12
2023-04-18T05:32:15.674Z,14
2023-04-18T05:33:24.912Z,13
2023-04-18T05:34:31.868Z,13
2023-04-18T05:35:39.544Z,13
2023-04-18T05:36:46.352Z,12
2023-04-18T05:37:53.289Z,13
2023-04-18T05:39:03.078Z,13
2023-04-18T05:40:09.965Z,14
2023-04-18T05:41:17.024Z,14
2023-04-18T05:42:23.859Z,14
2023-04-18T05:43:30.659Z,13
2023-04-18T05:44:37.645Z,15
2023-04-18T05:45:44.558Z,14
2023-04-18T05:46:51.633Z,14
2023-04-18T05:47:58.479Z,13
2023-04-18T05:49:05.322Z,14
2023-04-18T05:50:12.213Z,15
2023-04-18T05:51:19.085Z,15
2023-04-18T05:52:25.945Z,15
2023-04-18T05:53:32.693Z,15
2023-04-18T05:54:39.607Z,16
2023-04-18T05:55:46.507Z,14
2023-04-18T05:56:53.364Z,13
2023-04-18T05:58:00.273Z,15
2023-04-18T05:59:07.114Z,13
2023-04-18T06:00:14.030Z,14
2023-04-18T06:01:21.093Z,14
2023-04-18T06:02:28.293Z,15
2023-04-18T06:03:35.152Z,14
2023-04-18T06:04:42.140Z,14
2023-04-18T06:05:48.825Z,14
2023-04-18T06:06:55.676Z,13
2023-04-18T06:08:02.727Z,12
2023-04-18T06:09:09.620Z,13
2023-04-18T06:10:16.444Z,13
2023-04-18T06:11:23.287Z,14
2023-04-18T06:12:30.141Z,12
2023-04-18T06:13:37.034Z,14
2023-04-18T06:14:44.105Z,14
2023-04-18T06:15:51.048Z,13
2023-04-18T06:16:57.866Z,14
2023-04-18T06:18:04.821Z,12
2023-04-18T06:19:11.602Z,15
2023-04-18T06:20:18.458Z,13
2023-04-18T06:21:25.288Z,11
2023-04-18T06:22:32.244Z,11
2023-04-18T06:23:39.077Z,12
2023-04-18T06:24:46.055Z,13
2023-04-18T06:25:52.898Z,13
2023-04-18T06:26:59.756Z,12
2023-04-18T06:28:06.676Z,12
2023-04-18T06:29:14.324Z,13
2023-04-18T06:30:21.228Z,11
2023-04-18T06:31:28.248Z,11
2023-04-18T06:32:35.050Z,11
2023-04-18T06:33:42.025Z,11
2023-04-18T06:34:48.753Z,11
2023-04-18T06:35:55.563Z,12
2023-04-18T06:37:02.490Z,11
2023-04-18T06:38:09.295Z,11
2023-04-18T06:39:16.239Z,10
2023-04-18T06:40:23.077Z,9
2023-04-18T06:41:29.953Z,10
2023-04-18T06:42:36.859Z,12
2023-04-18T06:43:52.363Z,11
2023-04-18T06:44:50.637Z,11
2023-04-18T06:45:57.762Z,11
2023-04-18T06:47:04.618Z,11
2023-04-18T06:48:11.586Z,11
2023-04-18T06:49:18.582Z,10
2023-04-18T06:50:25.423Z,11
2023-04-18T06:51:32.307Z,13
2023-04-18T06:52:39.243Z,11
2023-04-18T06:53:49.065Z,9
2023-04-18T06:54:55.956Z,10
2023-04-18T06:56:02.842Z,11
2023-04-18T06:57:09.827Z,12
2023-04-18T06:58:16.691Z,9
2023-04-18T06:59:23.601Z,11
2023-04-18T07:00:31.268Z,12
2023-04-18T07:01:38.327Z,12
2023-04-18T07:02:45.246Z,11
2023-04-18T07:03:52.012Z,10
2023-04-18T07:04:58.931Z,10
2023-04-18T07:06:05.737Z,10
2023-04-18T07:07:12.588Z,10
2023-04-18T07:08:19.493Z,10
2023-04-18T07:09:26.341Z,11
2023-04-18T07:10:33.243Z,9
2023-04-18T07:11:40.180Z,12
2023-04-18T07:12:47.004Z,11
2023-04-18T07:13:54.060Z,11
2023-04-18T07:15:00.889Z,9
2023-04-18T07:16:08.416Z,10
2023-04-18T07:17:15.355Z,10
2023-04-18T07:18:30.543Z,10
2023-04-18T07:19:29.479Z,11
2023-04-18T07:20:36.704Z,12
2023-04-18T07:21:43.495Z,14
2023-04-18T07:22:50.290Z,12
2023-04-18T07:23:57.103Z,13
2023-04-18T07:25:04.051Z,11
2023-04-18T07:26:11.083Z,11
2023-04-18T07:27:17.983Z,12
2023-04-18T07:28:24.832Z,11
2023-04-18T07:29:31.710Z,14
2023-04-18T07:30:38.640Z,12
2023-04-18T07:31:45.574Z,13
2023-04-18T07:32:52.426Z,13
2023-04-18T07:33:59.219Z,13
2023-04-18T07:35:06.090Z,10
2023-04-18T07:36:12.901Z,11
2023-04-18T07:37:19.804Z,11
2023-04-18T07:38:26.668Z,11
2023-04-18T07:39:33.541Z,10
2023-04-18T07:40:40.409Z,12
2023-04-18T07:41:50.157Z,11
2023-04-18T07:43:00.177Z,11
2023-04-18T07:44:08.240Z,12
2023-04-18T07:45:15.111Z,11
2023-04-18T07:46:22.009Z,13
2023-04-18T07:47:30.042Z,10
2023-04-18T07:48:35.594Z,9
2023-04-18T07:49:42.484Z,10
2023-04-18T07:50:49.347Z,10
2023-04-18T07:51:56.359Z,11
2023-04-18T07:53:03.980Z,10
2023-04-18T07:54:12.705Z,10
2023-04-18T07:55:19.538Z,10
2023-04-18T07:56:26.397Z,9
2023-04-18T07:57:33.303Z,10
2023-04-18T07:58:40.314Z,12
2023-04-18T07:59:47.386Z,8
2023-04-18T08:00:54.266Z,10
2023-04-18T08:02:01.391Z,11
2023-04-18T08:03:08.407Z,9
2023-04-18T08:04:16.394Z,11
2023-04-18T08:05:23.284Z,12
2023-04-18T08:06:30.014Z,11
2023-04-18T08:07:37.089Z,10
2023-04-18T08:08:43.910Z,12
2023-04-18T08:09:50.907Z,10
2023-04-18T08:10:57.768Z,11
2023-04-18T08:12:04.704Z,10
2023-04-18T08:13:13.580Z,10
2023-04-18T08:14:20.601Z,9
2023-04-18T08:15:27.446Z,12
2023-04-18T08:16:34.351Z,10
2023-04-18T08:17:41.206Z,10
2023-04-18T08:18:48.426Z,9
2023-04-18T08:19:55.322Z,13
2023-04-18T08:21:02.212Z,13
2023-04-18T08:22:09.101Z,10
2023-04-18T08:23:16.301Z,11
2023-04-18T08:24:23.022Z,11
2023-04-18T08:25:29.880Z,11
2023-04-18T08:26:36.688Z,10
2023-04-18T08:27:43.537Z,13
2023-04-18T08:28:50.517Z,11
2023-04-18T08:29:58.283Z,12
2023-04-18T08:31:05.186Z,10
2023-04-18T08:32:11.989Z,12
2023-04-18T08:33:18.925Z,10
2023-04-18T08:34:25.912Z,11
2023-04-18T08:35:32.735Z,11
2023-04-18T08:36:39.610Z,12
2023-04-18T08:37:46.455Z,11
2023-04-18T08:38:53.532Z,12
2023-04-18T08:40:00.565Z,13
2023-04-18T08:41:08.723Z,11
2023-04-18T08:42:15.651Z,11
2023-04-18T08:43:22.475Z,13
2023-04-18T08:44:29.339Z,12
2023-04-18T08:45:37.326Z,11
2023-04-18T08:46:44.177Z,12
2023-04-18T08:47:51.052Z,14
2023-04-18T08:48:57.972Z,13
2023-04-18T08:50:04.852Z,11
2023-04-18T08:51:11.811Z,13
2023-04-18T08:52:18.871Z,10
2023-04-18T08:53:25.687Z,12
2023-04-18T08:54:32.802Z,13
2023-04-18T08:55:39.566Z,11
2023-04-18T08:56:46.380Z,11
2023-04-18T08:58:03.574Z,11
2023-04-18T08:59:10.433Z,12
2023-04-18T09:00:17.576Z,12
2023-04-18T09:01:24.624Z,12
2023-04-18T09:02:42.019Z,12
2023-04-18T09:03:48.801Z,13
2023-04-18T09:04:55.666Z,11
2023-04-18T09:06:02.577Z,13
2023-04-18T09:07:09.526Z,14
2023-04-18T09:08:16.425Z,12
2023-04-18T09:09:26.545Z,13
2023-04-18T09:10:45.392Z,14
2023-04-18T09:11:50.583Z,12
2023-04-18T09:13:02.645Z,12
2023-04-18T09:14:09.558Z,10
2023-04-18T09:15:26.694Z,13
2023-04-18T09:16:33.806Z,13
2023-04-18T09:17:45.775Z,12
2023-04-18T09:18:52.680Z,10
2023-04-18T09:20:09.917Z,9
2023-04-18T09:21:16.713Z,10
2023-04-18T09:22:23.521Z,9
2023-04-18T09:23:30.441Z,10
2023-04-18T09:24:37.297Z,10
2023-04-18T09:25:44.898Z,11
2023-04-18T09:26:51.115Z,11
2023-04-18T09:27:57.849Z,12
2023-04-18T09:29:04.679Z,10
2023-04-18T09:30:11.608Z,11
2023-04-18T09:31:18.521Z,11
2023-04-18T09:32:26.159Z,11
2023-04-18T09:33:33.223Z,10
2023-04-18T09:34:40.026Z,12
2023-04-18T09:35:53.265Z,10
2023-04-18T09:37:14.376Z,10
2023-04-18T09:38:21.182Z,10
2023-04-18T09:39:38.351Z,9
2023-04-18T09:40:45.290Z,10
2023-04-18T09:41:52.149Z,11
2023-04-18T09:43:01.578Z,10
2023-04-18T09:44:18.813Z,11
2023-04-18T09:45:25.528Z,12
2023-04-18T09:46:32.412Z,12
2023-04-18T09:47:39.269Z,10
2023-04-18T09:48:46.027Z,11
2023-04-18T09:49:52.863Z,10
2023-04-18T09:50:59.714Z,11
2023-04-18T09:52:09.344Z,11
2023-04-18T09:53:16.939Z,10
2023-04-18T09:54:22.986Z,9
2023-04-18T09:55:29.868Z,10
2023-04-18T09:56:36.700Z,12
2023-04-18T09:57:43.474Z,9
2023-04-18T09:58:50.270Z,8
2023-04-18T10:00:00.123Z,10
2023-04-18T10:01:07.085Z,9
2023-04-18T10:02:13.941Z,11
2023-04-18T10:03:23.976Z,10
2023-04-18T10:04:30.809Z,8
2023-04-18T10:05:37.561Z,8
2023-04-18T10:06:44.383Z,10
2023-04-18T10:07:51.207Z,9
2023-04-18T10:08:58.101Z,10
2023-04-18T10:10:08.026Z,13
2023-04-18T10:11:14.922Z,10
2023-04-18T10:12:23.942Z,11
2023-04-18T10:13:30.828Z,10
2023-04-18T10:14:37.737Z,9
2023-04-18T10:15:44.608Z,10
2023-04-18T10:16:52.093Z,10
2023-04-18T10:18:04.088Z,12
2023-04-18T10:19:05.721Z,11
2023-04-18T10:20:23.084Z,9
2023-04-18T10:21:32.517Z,10
2023-04-18T10:22:40.311Z,10
2023-04-18T10:23:47.236Z,10
2023-04-18T10:24:54.116Z,10
2023-04-18T10:26:01.057Z,8
2023-04-18T10:27:10.870Z,10
2023-04-18T10:28:20.548Z,10
2023-04-18T10:29:30.226Z,7
2023-04-18T10:30:47.546Z,9
2023-04-18T10:31:54.485Z,7
2023-04-18T10:33:01.246Z,9
2023-04-18T10:34:18.609Z,10
2023-04-18T10:35:25.409Z,8
2023-04-18T10:36:32.289Z,9
2023-04-18T10:37:39.078Z,10
2023-04-18T10:38:53.816Z,9
2023-04-18T10:40:03.510Z,9
2023-04-18T10:41:10.653Z,9
2023-04-18T10:42:17.507Z,9
2023-04-18T10:43:29.468Z,8
2023-04-18T10:44:36.308Z,8
2023-04-18T10:45:43.142Z,8
2023-04-18T10:46:50.085Z,8
2023-04-18T10:47:56.901Z,8
2023-04-18T10:49:14.222Z,9
2023-04-18T10:50:20.856Z,9
2023-04-18T10:51:30.436Z,8
2023-04-18T10:52:37.256Z,9
2023-04-18T10:53:44.158Z,8
2023-04-18T10:54:50.962Z,8
2023-04-18T10:55:57.809Z,7
2023-04-18T10:57:04.686Z,10
2023-04-18T10:58:11.464Z,7
2023-04-18T10:59:18.360Z,8
2023-04-18T11:00:25.112Z,9
2023-04-18T11:01:32.823Z,8
2023-04-18T11:02:39.007Z,8
2023-04-18T11:03:50.892Z,9
2023-04-18T11:04:57.574Z,8
2023-04-18T11:06:04.376Z,10
2023-04-18T11:07:11.424Z,8
2023-04-18T11:08:18.243Z,7
2023-04-18T11:09:27.844Z,8
2023-04-18T11:10:34.642Z,7
2023-04-18T11:11:41.535Z,10
2023-04-18T11:12:48.365Z,8
2023-04-18T11:13:55.214Z,8
2023-04-18T11:15:02.110Z,9
2023-04-18T11:16:14.274Z,7
2023-04-18T11:17:31.418Z,8
2023-04-18T11:18:41.045Z,8
2023-04-18T11:19:47.748Z,9
2023-04-18T11:20:54.708Z,9
2023-04-18T11:22:01.634Z,10
2023-04-18T11:23:08.513Z,8
2023-04-18T11:24:20.635Z,8
2023-04-18T11:25:27.446Z,8
2023-04-18T11:26:37.742Z,7
2023-04-18T11:27:44.610Z,9
2023-04-18T11:28:51.451Z,7
2023-04-18T11:30:01.105Z,8
2023-04-18T11:31:08.270Z,8
2023-04-18T11:32:15.237Z,6
2023-04-18T11:33:22.101Z,7
2023-04-18T11:34:28.991Z,8
2023-04-18T11:35:35.783Z,9
2023-04-18T11:36:45.270Z,8
2023-04-18T11:37:52.075Z,8
2023-04-18T11:38:59.009Z,7
2023-04-18T11:40:05.866Z,8
2023-04-18T11:41:12.785Z,10
2023-04-18T11:42:19.694Z,9
2023-04-18T11:43:29.109Z,8
2023-04-18T11:44:36.255Z,9
2023-04-18T11:45:42.918Z,7
2023-04-18T11:46:54.946Z,8
2023-04-18T11:48:01.901Z,7
2023-04-18T11:49:08.676Z,8
2023-04-18T11:50:35.705Z,9
2023-04-18T11:51:44.393Z,9
2023-04-18T11:52:51.219Z,12
2023-04-18T11:53:58.042Z,7
2023-04-18T11:55:04.903Z,10
2023-04-18T11:56:17.086Z,7
2023-04-18T11:57:23.854Z,8
2023-04-18T11:58:30.729Z,9
2023-04-18T11:59:37.541Z,7
2023-04-18T12:00:44.362Z,8
2023-04-18T12:01:51.127Z,7
2023-04-18T12:03:03.216Z,9
2023-04-18T12:04:10.196Z,8
2023-04-18T12:05:17.210Z,9
2023-04-18T12:06:28.918Z,8
2023-04-18T12:07:46.033Z,8
2023-04-18T12:08:54.038Z,11
2023-04-18T12:10:02.468Z,7
2023-04-18T12:11:09.522Z,8
2023-04-18T12:12:16.352Z,7
2023-04-18T12:13:23.331Z,9
2023-04-18T12:14:30.319Z,7
2023-04-18T12:15:37.248Z,8
2023-04-18T12:16:44.051Z,7
2023-04-18T12:17:53.872Z,9
2023-04-18T12:19:03.443Z,7
2023-04-18T12:20:10.277Z,8
2023-04-18T12:21:17.106Z,8
2023-04-18T12:22:24.158Z,7
2023-04-18T12:23:38.915Z,9
2023-04-18T12:24:45.776Z,7
2023-04-18T12:25:52.716Z,8
2023-04-18T12:27:05.182Z,7
2023-04-18T12:28:12.175Z,9
2023-04-18T12:29:18.983Z,7
2023-04-18T12:30:25.884Z,7
2023-04-18T12:31:32.753Z,8
2023-04-18T12:32:39.520Z,7
2023-04-18T12:33:46.393Z,7
2023-04-18T12:34:53.201Z,8
2023-04-18T12:36:00.193Z,9
2023-04-18T12:37:07.602Z,8
2023-04-18T12:38:17.768Z,7
2023-04-18T12:39:28.745Z,7
2023-04-18T12:40:35.569Z,7
2023-04-18T12:41:42.400Z,8
2023-04-18T12:42:49.275Z,9
2023-04-18T12:43:56.079Z,7
2023-04-18T12:45:02.965Z,7
2023-04-18T12:46:10.207Z,7
2023-04-18T12:47:17.069Z,7
2023-04-18T12:48:24.064Z,9
2023-04-18T12:49:31.044Z,9
2023-04-18T12:50:37.823Z,14
2023-04-18T12:51:44.668Z,8
2023-04-18T12:52:51.479Z,8
2023-04-18T12:53:58.497Z,10
2023-04-18T12:55:05.359Z,6
2023-04-18T12:56:12.367Z,7
2023-04-18T12:57:19.215Z,8
2023-04-18T12:58:26.018Z,10
2023-04-18T12:59:33.712Z,13
2023-04-18T13:00:40.604Z,10
2023-04-18T13:01:47.381Z,8
2023-04-18T13:02:54.400Z,10
2023-04-18T13:04:21.454Z,9
2023-04-18T13:05:30.864Z,12
2023-04-18T13:06:35.076Z,13
2023-04-18T13:07:41.849Z,16
2023-04-18T13:08:48.622Z,19
2023-04-18T13:09:55.424Z,11
2023-04-18T13:11:02.141Z,8
2023-04-18T13:12:08.883Z,9
2023-04-18T13:13:15.667Z,9
2023-04-18T13:14:22.552Z,9
2023-04-18T13:15:29.582Z,9
2023-04-18T13:16:36.406Z,8
2023-04-18T13:17:43.264Z,8
2023-04-18T13:18:50.070Z,7
2023-04-18T13:19:56.773Z,7
2023-04-18T13:21:03.649Z,6
2023-04-18T13:22:10.494Z,10
2023-04-18T13:23:17.361Z,8
2023-04-18T13:24:24.100Z,7
2023-04-18T13:25:30.873Z,7
2023-04-18T13:26:37.781Z,6
2023-04-18T13:27:44.772Z,6
2023-04-18T13:28:51.621Z,7
2023-04-18T13:29:58.548Z,7
2023-04-18T13:31:05.365Z,7
2023-04-18T13:32:12.351Z,7
2023-04-18T13:33:19.201Z,8
2023-04-18T13:34:26.051Z,9
2023-04-18T13:35:32.974Z,8
2023-04-18T13:36:39.855Z,7
2023-04-18T13:37:46.677Z,7
2023-04-18T13:38:53.609Z,9
2023-04-18T13:40:00.541Z,7
2023-04-18T13:44:05.221Z,9
2023-04-18T13:45:12.095Z,7
2023-04-18T13:46:19.025Z,8
2023-04-18T13:47:26.019Z,6
2023-04-18T13:48:32.914Z,9
2023-04-18T13:49:40.617Z,8
2023-04-18T13:50:47.568Z,8
2023-04-18T13:51:55.418Z,8
2023-04-18T13:53:02.341Z,7
2023-04-18T13:54:09.245Z,8
2023-04-18T13:55:16.157Z,7
2023-04-18T13:56:24.004Z,6
2023-04-18T13:57:30.907Z,6
2023-04-18T13:58:37.844Z,6
2023-04-18T13:59:44.834Z,8
2023-04-18T14:00:51.685Z,8
2023-04-18T14:01:58.645Z,8
2023-04-18T14:03:05.681Z,7
2023-04-18T14:04:12.784Z,7
2023-04-18T14:05:19.427Z,7
2023-04-18T14:06:26.317Z,7
2023-04-18T14:07:33.251Z,10
2023-04-18T14:08:40.250Z,9
2023-04-18T14:09:47.113Z,7
2023-04-18T14:10:53.957Z,8
2023-04-18T14:12:00.816Z,7
2023-04-18T14:13:07.816Z,7
2023-04-18T14:14:14.778Z,6
2023-04-18T14:16:59.566Z,6
2023-04-18T14:18:06.517Z,8
2023-04-18T14:19:13.705Z,8
2023-04-18T14:20:20.334Z,8
2023-04-18T14:21:27.191Z,8
2023-04-18T14:22:34.291Z,10
2023-04-18T14:23:41.885Z,8
2023-04-18T14:24:48.980Z,8
2023-04-18T14:25:55.933Z,8
2023-04-18T14:27:02.791Z,7
2023-04-18T14:28:09.866Z,6
2023-04-18T14:29:16.888Z,11
2023-04-18T14:30:23.493Z,8
2023-04-18T14:31:30.355Z,7
2023-04-18T14:32:37.267Z,7
2023-04-18T14:33:44.174Z,6
2023-04-18T14:34:51.101Z,8
2023-04-18T14:35:57.945Z,9
2023-04-18T14:37:04.867Z,6
2023-04-18T14:38:11.774Z,7
2023-04-18T14:39:18.715Z,11
2023-04-18T14:40:25.673Z,8
2023-04-18T14:41:32.559Z,10
2023-04-18T14:42:39.388Z,6
2023-04-18T14:43:46.208Z,8
2023-04-18T14:44:53.077Z,8
2023-04-18T14:46:00.056Z,9
2023-04-18T14:47:07.001Z,8
2023-04-18T14:48:13.849Z,10
2023-04-18T14:49:20.809Z,8
2023-04-18T14:50:27.701Z,8
2023-04-18T14:51:34.631Z,7
2023-04-18T14:52:42.442Z,9
2023-04-18T14:53:49.320Z,9
2023-04-18T14:54:57.091Z,12
2023-04-18T14:56:03.911Z,9
2023-04-18T14:57:10.778Z,8
2023-04-18T14:58:17.756Z,8
2023-04-18T14:59:24.585Z,9
2023-04-18T15:00:31.389Z,7
2023-04-18T15:01:38.281Z,8
2023-04-18T15:02:46.206Z,10
2023-04-18T15:03:53.151Z,10
2023-04-18T15:04:59.764Z,9
2023-04-18T15:06:06.764Z,10
2023-04-18T15:07:13.729Z,8
2023-04-18T15:08:20.565Z,9
2023-04-18T15:09:27.535Z,9
2023-04-18T15:10:34.568Z,9
2023-04-18T15:11:41.499Z,8
2023-04-18T15:12:49.573Z,9
2023-04-18T15:13:56.454Z,8
2023-04-18T15:15:03.376Z,8
2023-04-18T15:16:10.665Z,9
2023-04-18T15:17:17.436Z,9
2023-04-18T15:18:24.361Z,10
2023-04-18T15:19:31.377Z,9
2023-04-18T15:20:38.243Z,9
2023-04-18T15:21:45.195Z,10
2023-04-18T15:22:52.075Z,10
2023-04-18T15:23:59.008Z,9
2023-04-18T15:25:06.021Z,8
2023-04-18T15:26:12.970Z,10
2023-04-18T15:27:20.748Z,9
2023-04-18T15:28:27.765Z,10
2023-04-18T15:29:34.626Z,8
2023-04-18T15:30:41.468Z,7
2023-04-18T15:31:48.348Z,8
2023-04-18T15:32:55.259Z,9
2023-04-18T15:34:02.221Z,9
2023-04-18T15:35:09.403Z,8
2023-04-18T15:36:16.375Z,8
2023-04-18T15:37:23.302Z,9
2023-04-18T15:38:32.337Z,10
2023-04-18T15:39:37.858Z,8
2023-04-18T15:40:44.899Z,9
2023-04-18T15:41:51.706Z,10
2023-04-18T15:42:58.660Z,9
2023-04-18T15:44:07.195Z,8
2023-04-18T15:45:12.923Z,10
2023-04-18T15:46:20.035Z,7
2023-04-18T15:47:26.895Z,9
2023-04-18T15:48:33.963Z,7
2023-04-18T15:49:40.851Z,10
2023-04-18T15:50:47.838Z,13
2023-04-18T15:51:54.731Z,10
2023-04-18T15:53:01.798Z,8
2023-04-18T15:54:08.649Z,8
2023-04-18T15:55:15.490Z,7
2023-04-18T15:56:22.326Z,10
2023-04-18T15:57:31.912Z,8
2023-04-18T15:58:38.924Z,9
2023-04-18T15:59:45.764Z,8
2023-04-18T16:00:52.738Z,9
2023-04-18T16:01:59.664Z,9
2023-04-18T16:03:06.569Z,8
2023-04-18T16:04:13.548Z,8
2023-04-18T16:05:20.404Z,9
2023-04-18T16:06:27.491Z,9
2023-04-18T16:07:34.463Z,9
2023-04-18T16:08:44.471Z,8
2023-04-18T16:09:51.273Z,8
2023-04-18T16:10:58.080Z,9
2023-04-18T16:12:04.969Z,9
2023-04-18T16:13:11.799Z,9
2023-04-18T16:14:18.711Z,9
2023-04-18T16:15:25.521Z,8
2023-04-18T16:16:35.417Z,8
2023-04-18T16:17:42.405Z,10
2023-04-18T16:18:49.277Z,8
2023-04-18T16:19:56.101Z,9
2023-04-18T16:21:03.035Z,10
2023-04-18T16:22:09.865Z,10
2023-04-18T16:23:16.779Z,9
2023-04-18T16:24:23.908Z,8
2023-04-18T16:25:30.837Z,7
2023-04-18T16:26:37.793Z,8
2023-04-18T16:27:44.736Z,9
2023-04-18T16:28:52.521Z,8
2023-04-18T16:29:59.991Z,7